Time;durP1;ratioP1;P1;durP2;ratioP2;P2;SDS_P1;SDS_P2;PMS_P1;PMS_P2;Temp;Humidity;BMP_temperature;BMP_pressure;BME280_temperature;BME280_humidity;BME280_pressure;Samples;Min_cycle;Max_cycle;Signal;HPM_P1;HPM_P2
2022/05/02 00:01:37;;;;;;;15.80;14.40;;;14.30;99.90;;;;;;5014676;28;20220;-76
2022/05/02 00:04:03;;;;;;;15.60;14.00;;;14.40;99.90;;;;;;5012622;28;20219;-76
2022/05/02 00:06:29;;;;;;;16.10;14.40;;;14.50;99.90;;;;;;5013150;28;20918;-75
2022/05/02 00:08:54;;;;;;;17.33;14.27;;;14.60;99.90;;;;;;5013528;28;20543;-73
2022/05/02 00:11:20;;;;;;;18.83;13.90;;;14.60;99.90;;;;;;5012763;28;20180;-75
2022/05/02 00:13:46;;;;;;;18.73;14.00;;;14.60;99.90;;;;;;5014023;28;20225;-76
2022/05/02 00:16:11;;;;;;;16.17;13.43;;;14.80;99.90;;;;;;5015817;28;20238;-73
2022/05/02 00:18:37;;;;;;;15.40;13.80;;;14.90;99.90;;;;;;5026662;28;20181;-73
2022/05/02 00:21:02;;;;;;;16.03;14.37;;;14.70;99.90;;;;;;5014374;28;20878;-77
2022/05/02 00:23:29;;;;;;;15.03;13.53;;;14.70;99.90;;;;;;5012690;28;20227;-74
2022/05/02 00:25:55;;;;;;;19.23;14.00;;;14.40;99.90;;;;;;5014521;28;20169;-74
2022/05/02 00:28:20;;;;;;;15.27;13.53;;;14.30;99.90;;;;;;5013018;28;20463;-75
2022/05/02 00:30:46;;;;;;;15.43;12.83;;;14.60;99.90;;;;;;5012896;28;20184;-76
2022/05/02 00:33:12;;;;;;;15.47;13.87;;;14.70;99.90;;;;;;5014466;28;20343;-76
2022/05/02 00:35:38;;;;;;;15.80;14.10;;;14.80;99.90;;;;;;5011367;28;20638;-76
2022/05/02 00:38:05;;;;;;;14.33;12.93;;;14.80;99.90;;;;;;5014387;28;20440;-76
2022/05/02 00:40:31;;;;;;;14.00;12.70;;;14.70;99.90;;;;;;5015012;28;20647;-76
2022/05/02 00:42:56;;;;;;;17.10;14.20;;;14.80;99.90;;;;;;5011913;28;20894;-77
2022/05/02 00:45:22;;;;;;;15.00;13.10;;;14.60;99.90;;;;;;5012553;28;20442;-74
2022/05/02 00:47:55;;;;;;;14.10;12.60;;;14.60;99.90;;;;;;5009589;28;20204;-77
2022/05/02 00:50:36;;;;;;;16.77;13.57;;;14.70;99.90;;;;;;5014942;28;20181;-73
2022/05/02 00:53:05;;;;;;;14.73;12.43;;;14.50;99.90;;;;;;5013607;28;20542;-74
2022/05/02 00:55:32;;;;;;;13.63;12.30;;;14.40;99.90;;;;;;5013658;28;20660;-77
2022/05/02 00:57:59;;;;;;;16.73;13.70;;;14.50;99.90;;;;;;5013524;28;20428;-75
2022/05/02 01:00:26;;;;;;;15.20;13.17;;;14.40;99.90;;;;;;5014063;28;20455;-75
2022/05/02 01:02:52;;;;;;;12.87;11.47;;;14.60;99.90;;;;;;5015003;28;20505;-77
2022/05/02 01:05:17;;;;;;;14.60;13.10;;;14.20;99.90;;;;;;5009438;28;20539;-76
2022/05/02 01:07:46;;;;;;;16.37;13.60;;;14.20;99.90;;;;;;5010645;28;20204;-74
2022/05/02 01:10:18;;;;;;;13.60;11.53;;;14.40;99.90;;;;;;5009301;28;20263;-77
2022/05/02 01:12:46;;;;;;;13.37;11.77;;;14.50;99.90;;;;;;5009911;28;20451;-76
2022/05/02 01:15:12;;;;;;;13.17;11.77;;;14.60;99.90;;;;;;5010999;28;20430;-75
2022/05/02 01:17:38;;;;;;;13.20;11.90;;;14.40;99.90;;;;;;5008040;28;21369;-76
2022/05/02 01:20:08;;;;;;;12.97;11.67;;;14.50;99.90;;;;;;5012186;28;20435;-77
2022/05/02 01:22:34;;;;;;;12.70;11.40;;;14.50;99.90;;;;;;5011775;28;20790;-76
2022/05/02 01:25:00;;;;;;;13.10;11.40;;;14.50;99.90;;;;;;5011215;28;20489;-73
2022/05/02 01:27:25;;;;;;;13.80;12.13;;;14.60;99.90;;;;;;5012287;28;20223;-73
2022/05/02 01:29:51;;;;;;;12.77;11.47;;;14.50;99.90;;;;;;5012820;28;20180;-74
2022/05/02 01:32:17;;;;;;;13.20;11.17;;;14.50;99.90;;;;;;5011393;28;20207;-76
2022/05/02 01:34:43;;;;;;;13.30;12.00;;;14.50;99.90;;;;;;5010724;28;20193;-75
2022/05/02 01:37:10;;;;;;;14.80;12.13;;;14.50;99.90;;;;;;5008060;28;20238;-76
2022/05/02 01:39:36;;;;;;;14.50;11.40;;;14.40;99.90;;;;;;5005217;28;20932;-77
2022/05/02 01:42:04;;;;;;;13.60;11.63;;;14.30;99.90;;;;;;5013540;28;20434;-73
2022/05/02 01:44:30;;;;;;;12.87;11.37;;;14.40;99.90;;;;;;5009489;28;20430;-74
2022/05/02 01:46:56;;;;;;;13.80;12.50;;;13.90;99.90;;;;;;5010867;28;20970;-75
2022/05/02 01:49:22;;;;;;;12.20;10.90;;;14.00;99.90;;;;;;5014432;28;20419;-74
2022/05/02 01:51:48;;;;;;;13.23;10.77;;;14.20;99.90;;;;;;5007816;28;20813;-74
2022/05/02 01:54:14;;;;;;;13.00;10.60;;;14.10;99.90;;;;;;5011053;28;20451;-75
2022/05/02 01:56:40;;;;;;;16.33;10.50;;;13.90;99.90;;;;;;5012227;28;20435;-76
2022/05/02 01:59:05;;;;;;;13.30;11.90;;;13.70;99.90;;;;;;5011315;28;20435;-75
2022/05/02 02:01:32;;;;;;;12.57;11.23;;;13.60;99.90;;;;;;5014028;28;20193;-74
2022/05/02 02:04:00;;;;;;;11.70;10.37;;;13.80;99.90;;;;;;5013293;28;20204;-74
2022/05/02 02:06:26;;;;;;;11.67;10.50;;;13.90;99.90;;;;;;5016668;28;20510;-76
2022/05/02 02:08:52;;;;;;;13.53;11.97;;;13.90;99.90;;;;;;5011647;28;20878;-75
2022/05/02 02:11:18;;;;;;;12.67;11.30;;;13.80;99.90;;;;;;5030939;28;20193;-76
2022/05/02 02:13:44;;;;;;;12.60;11.30;;;13.60;99.90;;;;;;5016627;28;20459;-76
2022/05/02 02:16:10;;;;;;;13.93;11.83;;;13.60;99.90;;;;;;5017652;28;20608;-75
2022/05/02 02:18:41;;;;;;;13.03;10.90;;;13.60;99.90;;;;;;5031176;28;20427;-73
2022/05/02 02:21:08;;;;;;;13.50;12.10;;;13.70;99.90;;;;;;5016831;28;20432;-74
2022/05/02 02:23:34;;;;;;;12.90;11.13;;;13.80;99.90;;;;;;5016788;28;20455;-73
2022/05/02 02:26:00;;;;;;;14.13;11.50;;;13.90;99.90;;;;;;5013199;28;20435;-75
2022/05/02 02:28:25;;;;;;;11.73;10.40;;;13.90;99.90;;;;;;5013451;28;20216;-74
2022/05/02 02:30:51;;;;;;;12.37;11.17;;;14.00;99.90;;;;;;5012726;28;20489;-75
2022/05/02 02:33:17;;;;;;;12.53;11.23;;;14.10;99.90;;;;;;5017337;28;20292;-75
2022/05/02 02:35:43;;;;;;;13.73;11.07;;;14.10;99.90;;;;;;5015872;28;20432;-74
2022/05/02 02:38:12;;;;;;;12.37;11.20;;;14.00;99.90;;;;;;5009997;28;20261;-75
2022/05/02 02:40:40;;;;;;;13.97;12.00;;;14.00;99.90;;;;;;5017995;28;20190;-73
2022/05/02 02:43:07;;;;;;;13.27;11.97;;;14.00;99.90;;;;;;5008824;28;20510;-76
2022/05/02 02:45:32;;;;;;;14.90;11.70;;;14.00;99.90;;;;;;5014265;28;21040;-74
2022/05/02 02:47:58;;;;;;;12.83;11.53;;;14.00;99.90;;;;;;5008432;28;20469;-75
2022/05/02 02:50:24;;;;;;;14.13;11.23;;;14.00;99.90;;;;;;5007869;28;20188;-74
2022/05/02 02:52:49;;;;;;;13.87;12.57;;;14.00;99.90;;;;;;5012262;28;20227;-76
2022/05/02 02:55:15;;;;;;;13.30;11.40;;;14.00;99.90;;;;;;5029485;28;20181;-77
2022/05/02 02:57:41;;;;;;;11.70;10.50;;;13.80;99.90;;;;;;5014329;28;20200;-77
2022/05/02 03:00:07;;;;;;;13.13;11.77;;;13.90;99.90;;;;;;5016739;28;20714;-75
2022/05/02 03:02:36;;;;;;;13.10;11.27;;;13.60;99.90;;;;;;5012649;28;20236;-75
2022/05/02 03:07:47;;;;;;;14.90;13.10;;;13.00;99.90;;;;;;5013001;28;20471;-75
2022/05/02 03:10:12;;;;;;;14.40;12.90;;;13.20;99.90;;;;;;5012200;28;20431;-76
2022/05/02 03:12:38;;;;;;;13.57;11.10;;;13.20;99.90;;;;;;5014609;28;20213;-74
2022/05/02 03:15:05;;;;;;;14.13;12.70;;;13.40;99.90;;;;;;5010349;28;20231;-73
2022/05/02 03:17:30;;;;;;;16.03;12.50;;;13.50;99.90;;;;;;5013942;28;20961;-77
2022/05/02 03:19:56;;;;;;;15.10;13.50;;;13.60;99.90;;;;;;5009363;28;20443;-74
2022/05/02 03:22:22;;;;;;;16.00;14.40;;;13.60;99.90;;;;;;5027819;28;20200;-77
2022/05/02 03:24:47;;;;;;;17.80;15.90;;;13.60;99.90;;;;;;5010718;28;20181;-77
2022/05/02 03:27:13;;;;;;;18.17;15.63;;;13.30;99.90;;;;;;5010904;28;20204;-75
2022/05/02 03:29:38;;;;;;;17.30;15.43;;;13.00;99.90;;;;;;5009267;28;20191;-73
2022/05/02 03:32:04;;;;;;;18.10;15.67;;;13.20;99.90;;;;;;5011733;28;20173;-75
2022/05/02 03:34:30;;;;;;;17.73;15.73;;;12.90;99.90;;;;;;5008708;28;20549;-74
2022/05/02 03:36:56;;;;;;;17.37;15.20;;;13.10;99.90;;;;;;5012905;28;20444;-74
2022/05/02 03:39:21;;;;;;;19.53;17.37;;;12.80;99.90;;;;;;5014326;28;20204;-76
2022/05/02 03:41:47;;;;;;;18.80;15.87;;;12.70;99.90;;;;;;5012357;28;20268;-73
2022/05/02 03:44:12;;;;;;;19.57;16.80;;;12.90;99.90;;;;;;5014771;28;20499;-75
2022/05/02 03:46:38;;;;;;;17.93;15.87;;;12.90;99.90;;;;;;5012571;28;20200;-73
2022/05/02 03:49:04;;;;;;;18.90;17.00;;;13.00;99.90;;;;;;5014956;28;20169;-75
2022/05/02 03:51:29;;;;;;;19.80;17.33;;;13.10;99.90;;;;;;5013841;28;20644;-75
2022/05/02 03:53:55;;;;;;;17.30;15.27;;;13.00;99.90;;;;;;5014903;28;20557;-72
2022/05/02 03:56:21;;;;;;;20.47;16.60;;;13.10;99.90;;;;;;5018536;28;20209;-73
2022/05/02 03:58:46;;;;;;;18.43;15.90;;;13.00;99.90;;;;;;5013805;28;20180;-74
2022/05/02 04:01:12;;;;;;;16.93;14.60;;;13.10;99.90;;;;;;5011213;28;20200;-74
2022/05/02 04:03:37;;;;;;;17.17;14.60;;;12.90;99.90;;;;;;5015627;28;20232;-72
2022/05/02 04:06:03;;;;;;;17.17;14.50;;;13.00;99.90;;;;;;5011239;28;20181;-72
2022/05/02 04:08:29;;;;;;;19.57;14.40;;;13.00;99.90;;;;;;5024913;28;20200;-72
2022/05/02 04:10:54;;;;;;;16.80;14.80;;;13.10;99.90;;;;;;5010484;28;20451;-75
2022/05/02 04:13:20;;;;;;;17.03;15.30;;;13.20;99.90;;;;;;5012332;28;20209;-72
2022/05/02 04:15:46;;;;;;;16.33;13.63;;;13.10;99.90;;;;;;5012458;28;20200;-72
2022/05/02 04:18:11;;;;;;;16.53;14.57;;;13.10;99.90;;;;;;5008776;28;20268;-72
2022/05/02 04:20:37;;;;;;;16.57;14.80;;;13.00;99.90;;;;;;5010855;28;20188;-75
2022/05/02 04:23:03;;;;;;;16.67;14.87;;;13.00;99.90;;;;;;5014293;28;20198;-75
2022/05/02 04:25:28;;;;;;;16.77;14.97;;;12.80;99.90;;;;;;5027697;28;20588;-72
2022/05/02 04:27:54;;;;;;;17.73;15.93;;;12.70;99.90;;;;;;5012655;28;20277;-72
2022/05/02 04:30:20;;;;;;;17.00;15.20;;;12.60;99.90;;;;;;5009358;28;20283;-72
2022/05/02 04:32:45;;;;;;;18.30;16.30;;;12.60;99.90;;;;;;5012712;28;20823;-73
2022/05/02 04:35:11;;;;;;;19.63;16.20;;;12.60;99.90;;;;;;5012020;28;20254;-76
2022/05/02 04:37:38;;;;;;;19.63;14.50;;;12.70;99.90;;;;;;5008746;28;20565;-74
2022/05/02 04:40:04;;;;;;;18.30;15.00;;;12.80;99.90;;;;;;5012853;28;20268;-73
2022/05/02 04:42:30;;;;;;;16.90;14.73;;;12.90;99.90;;;;;;5008694;28;21325;-72
2022/05/02 04:44:55;;;;;;;18.10;16.20;;;12.90;99.90;;;;;;5008975;28;20546;-75
2022/05/02 04:47:21;;;;;;;16.87;14.33;;;12.90;99.90;;;;;;5017442;28;20210;-73
2022/05/02 04:49:46;;;;;;;16.87;14.53;;;12.80;99.90;;;;;;5010952;28;20181;-74
2022/05/02 04:52:12;;;;;;;20.10;15.20;;;12.60;99.90;;;;;;5011109;28;20220;-73
2022/05/02 04:54:37;;;;;;;19.60;15.83;;;12.60;99.90;;;;;;5028915;28;20243;-74
2022/05/02 04:57:03;;;;;;;19.53;17.53;;;12.40;99.90;;;;;;5012125;28;20247;-73
2022/05/02 04:59:29;;;;;;;21.97;17.87;;;12.60;99.90;;;;;;5019661;28;20275;-73
2022/05/02 05:01:56;;;;;;;17.70;15.77;;;12.60;99.90;;;;;;5014429;28;20474;-76
2022/05/02 05:04:22;;;;;;;19.93;17.93;;;12.40;99.90;;;;;;5010932;28;20192;-73
2022/05/02 05:06:47;;;;;;;21.80;19.50;;;12.60;99.90;;;;;;5012065;28;20466;-74
2022/05/02 05:09:13;;;;;;;24.90;20.60;;;12.80;99.90;;;;;;5011392;28;21035;-76
2022/05/02 05:11:57;;;;;;;24.20;21.13;;;12.80;99.90;;;;;;5014204;28;20185;-77
2022/05/02 05:17:30;;;;;;;25.57;20.77;;;12.80;99.90;;;;;;5009014;28;20422;-76
2022/05/02 05:20:03;;;;;;;22.00;19.60;;;12.60;99.90;;;;;;5011295;28;20443;-74
2022/05/02 05:22:47;;;;;;;22.53;20.10;;;12.60;99.90;;;;;;5008600;28;20538;-73
2022/05/02 05:25:16;;;;;;;24.30;19.90;;;12.60;99.90;;;;;;5025995;28;20498;-73
2022/05/02 05:27:48;;;;;;;23.03;20.30;;;12.70;99.90;;;;;;5008593;28;20925;-75
2022/05/02 05:30:20;;;;;;;22.30;19.50;;;12.80;99.90;;;;;;5012470;28;20447;-76
2022/05/02 05:32:45;;;;;;;23.20;19.00;;;12.70;99.90;;;;;;5009751;28;21132;-73
2022/05/02 05:35:19;;;;;;;20.90;18.70;;;12.90;99.90;;;;;;5010359;28;20439;-74
2022/05/02 05:38:28;;;;;;;21.87;19.10;;;13.10;99.90;;;;;;5009195;28;20218;-74
2022/05/02 05:41:17;;;;;;;23.40;18.60;;;13.20;99.90;;;;;;5011671;28;20435;-72
2022/05/02 05:44:07;;;;;;;20.60;18.20;;;13.20;99.90;;;;;;5014693;28;20819;-75
2022/05/02 05:46:43;;;;;;;22.13;18.20;;;13.30;99.90;;;;;;5018201;28;20494;-73
2022/05/02 05:49:33;;;;;;;22.33;19.47;;;13.30;99.90;;;;;;5014034;28;20793;-76
2022/05/02 05:52:34;;;;;;;27.17;20.53;;;13.30;99.90;;;;;;5015213;28;20517;-76
2022/05/02 05:55:05;;;;;;;25.30;21.77;;;13.50;99.90;;;;;;4994721;28;20521;-73
2022/05/02 05:57:50;;;;;;;24.73;20.00;;;13.50;99.90;;;;;;5012078;28;20434;-74
2022/05/02 06:00:16;;;;;;;24.40;20.27;;;13.50;99.90;;;;;;5014179;28;20455;-74
2022/05/02 06:02:50;;;;;;;32.27;20.27;;;13.60;99.90;;;;;;5015596;28;20494;-74
2022/05/02 06:05:16;;;;;;;23.50;18.47;;;13.50;99.90;;;;;;5014146;28;20430;-76
2022/05/02 06:07:46;;;;;;;26.43;20.23;;;13.60;99.90;;;;;;5015900;28;20463;-73
2022/05/02 06:10:14;;;;;;;24.80;20.33;;;13.40;99.90;;;;;;5012543;28;20431;-73
2022/05/02 06:12:41;;;;;;;24.03;18.90;;;13.40;99.90;;;;;;5015251;28;20458;-73
2022/05/02 06:20:42;;;;;;;21.83;18.63;;;13.50;99.90;;;;;;5016569;28;21204;-73
2022/05/02 06:23:10;;;;;;;20.37;16.97;;;13.50;99.90;;;;;;5015389;28;20455;-75
2022/05/02 06:25:37;;;;;;;20.03;17.10;;;13.40;99.90;;;;;;5012933;28;20443;-73
2022/05/02 06:28:04;;;;;;;19.40;17.07;;;13.50;99.90;;;;;;5014308;28;21034;-75
2022/05/02 06:30:31;;;;;;;20.97;17.07;;;13.60;99.90;;;;;;5010061;28;20435;-72
2022/05/02 06:33:04;;;;;;;21.10;16.00;;;13.50;99.90;;;;;;5014063;28;20455;-72
2022/05/02 06:35:40;;;;;;;18.70;16.70;;;13.60;99.90;;;;;;5011601;28;21074;-73
2022/05/02 06:38:29;;;;;;;19.03;17.00;;;13.60;99.90;;;;;;5012000;28;20427;-72
2022/05/02 06:41:20;;;;;;;18.43;16.47;;;13.60;99.90;;;;;;5012467;28;20508;-74
2022/05/02 06:43:55;;;;;;;23.57;15.90;;;13.70;99.90;;;;;;5012119;28;20570;-72
2022/05/02 06:46:37;;;;;;;19.80;16.20;;;13.90;99.90;;;;;;5014722;28;20600;-74
2022/05/02 06:49:08;;;;;;;16.93;14.93;;;14.10;99.90;;;;;;5016119;28;20468;-73
2022/05/02 06:51:39;;;;;;;17.67;15.87;;;14.20;99.90;;;;;;5012445;28;21521;-74
2022/05/02 06:54:38;;;;;;;17.40;14.80;;;14.20;99.90;;;;;;5014042;28;20463;-72
2022/05/02 06:57:25;;;;;;;18.27;16.43;;;14.20;99.90;;;;;;5016757;28;20458;-74
2022/05/02 06:59:51;;;;;;;16.73;15.00;;;14.20;99.90;;;;;;5025522;28;20459;-72
2022/05/02 07:02:48;;;;;;;16.30;14.60;;;14.30;99.90;;;;;;5017092;28;20564;-73
2022/05/02 07:05:32;;;;;;;19.70;15.40;;;14.40;99.90;;;;;;5012229;28;20211;-73
2022/05/02 07:08:06;;;;;;;19.27;17.27;;;14.40;99.90;;;;;;5013364;28;20521;-74
2022/05/02 07:10:36;;;;;;;17.80;15.90;;;14.50;99.90;;;;;;5014763;28;20435;-73
2022/05/02 07:13:08;;;;;;;17.93;16.03;;;14.50;99.90;;;;;;5010584;28;20440;-72
2022/05/02 07:16:02;;;;;;;17.97;15.27;;;14.60;99.90;;;;;;5018544;28;20431;-74
2022/05/02 07:18:46;;;;;;;18.40;15.17;;;14.60;99.90;;;;;;5018071;28;20816;-76
2022/05/02 07:21:46;;;;;;;17.67;15.60;;;14.60;99.90;;;;;;5013317;28;20453;-75
2022/05/02 07:24:29;;;;;;;18.37;15.13;;;14.70;99.90;;;;;;5007914;28;20502;-76
2022/05/02 07:27:23;;;;;;;18.13;16.23;;;14.70;99.90;;;;;;5010622;28;20459;-75
2022/05/02 07:29:58;;;;;;;18.17;16.30;;;14.90;99.90;;;;;;5013227;28;20436;-74
2022/05/02 07:32:24;;;;;;;17.87;15.97;;;14.90;99.90;;;;;;5015273;28;20450;-73
2022/05/02 07:34:52;;;;;;;19.27;17.03;;;14.80;99.90;;;;;;5012267;28;20792;-72
2022/05/02 07:37:23;;;;;;;18.20;16.30;;;14.90;99.90;;;;;;5012525;28;20443;-73
2022/05/02 07:39:51;;;;;;;18.50;16.50;;;14.90;99.90;;;;;;5010179;28;20427;-75
2022/05/02 07:42:18;;;;;;;17.27;15.40;;;14.80;99.90;;;;;;5013888;28;20455;-73
2022/05/02 07:44:46;;;;;;;17.93;15.63;;;14.90;99.90;;;;;;5017972;28;20831;-73
2022/05/02 07:47:15;;;;;;;18.13;16.33;;;14.90;99.90;;;;;;5011465;28;20458;-73
2022/05/02 07:49:46;;;;;;;18.87;16.80;;;14.90;99.90;;;;;;5013023;28;21096;-76
2022/05/02 07:52:16;;;;;;;19.10;17.30;;;14.90;99.90;;;;;;5013811;28;20451;-76
2022/05/02 07:54:45;;;;;;;22.33;18.47;;;14.80;99.90;;;;;;5012009;28;20436;-75
2022/05/02 07:57:14;;;;;;;25.50;20.50;;;14.90;99.90;;;;;;5010287;28;20791;-73
2022/05/02 07:59:41;;;;;;;20.90;18.70;;;15.00;99.90;;;;;;5010113;28;20435;-76
2022/05/02 08:02:07;;;;;;;25.00;21.37;;;15.10;99.90;;;;;;5029325;28;20858;-76
2022/05/02 08:04:36;;;;;;;18.90;17.00;;;15.20;99.90;;;;;;5013843;28;20446;-76
2022/05/02 08:07:13;;;;;;;20.00;16.50;;;15.20;99.90;;;;;;5013705;28;20937;-74
2022/05/02 08:10:14;;;;;;;16.57;14.90;;;15.50;99.90;;;;;;5010127;28;20938;-73
2022/05/02 08:12:40;;;;;;;15.90;14.30;;;15.60;99.90;;;;;;4996701;28;20558;-75
2022/05/02 08:15:42;;;;;;;17.20;15.50;;;15.50;99.90;;;;;;5025774;28;20565;-76
2022/05/02 08:18:10;;;;;;;26.03;15.70;;;15.50;99.90;;;;;;5014272;28;20220;-73
2022/05/02 08:20:59;;;;;;;16.47;14.87;;;15.60;99.90;;;;;;5024927;28;20589;-74
2022/05/02 08:27:16;;;;;;;19.70;17.13;;;15.80;99.90;;;;;;5014127;28;20470;-76
2022/05/02 08:30:03;;;;;;;17.80;14.40;;;15.80;99.90;;;;;;5029155;28;20439;-74
2022/05/02 08:32:56;;;;;;;18.50;16.50;;;15.90;99.90;;;;;;5014570;28;20470;-76
2022/05/02 08:35:39;;;;;;;20.53;15.30;;;15.90;99.90;;;;;;5014249;28;20457;-76
2022/05/02 08:38:33;;;;;;;16.83;15.10;;;15.90;99.90;;;;;;5009601;28;20474;-75
2022/05/02 08:41:30;;;;;;;18.20;15.37;;;16.00;99.90;;;;;;5015099;28;20487;-74
2022/05/02 08:44:26;;;;;;;16.27;14.57;;;16.00;99.90;;;;;;5011573;28;20485;-74
2022/05/02 08:46:58;;;;;;;16.40;14.70;;;16.10;99.90;;;;;;5016709;28;20465;-75
2022/05/02 08:49:39;;;;;;;15.97;14.23;;;16.20;99.90;;;;;;5015859;28;20577;-74
2022/05/02 08:52:23;;;;;;;17.63;15.73;;;16.10;99.90;;;;;;5010578;28;20447;-73
2022/05/02 08:55:26;;;;;;;17.70;15.33;;;16.20;99.90;;;;;;5029379;28;20515;-75
2022/05/02 08:58:03;;;;;;;16.10;14.57;;;16.20;99.90;;;;;;5017467;28;20522;-77
2022/05/02 09:00:58;;;;;;;14.80;13.30;;;16.30;99.90;;;;;;5017050;28;20450;-74
2022/05/02 09:03:56;;;;;;;16.13;14.53;;;16.40;99.90;;;;;;5018056;28;20515;-74
2022/05/02 09:06:27;;;;;;;16.50;14.80;;;16.10;99.90;;;;;;4990496;28;20472;-75
2022/05/02 09:09:03;;;;;;;16.30;14.57;;;16.30;99.90;;;;;;5031662;28;20436;-77
2022/05/02 09:11:34;;;;;;;14.77;13.17;;;16.50;99.90;;;;;;5013074;28;20427;-76
2022/05/02 09:14:14;;;;;;;15.20;13.73;;;16.50;99.90;;;;;;5011495;28;20930;-75
2022/05/02 09:17:17;;;;;;;16.07;14.47;;;16.60;99.90;;;;;;5012046;28;20439;-74
2022/05/02 09:20:22;;;;;;;16.70;14.30;;;16.60;99.90;;;;;;5013309;28;20446;-76
2022/05/02 09:23:00;;;;;;;17.10;15.30;;;16.70;99.90;;;;;;5010223;28;20447;-76
2022/05/02 09:25:59;;;;;;;14.30;12.80;;;16.70;99.90;;;;;;5013466;28;20430;-75
2022/05/02 09:29:04;;;;;;;19.83;12.60;;;16.70;99.90;;;;;;5014065;28;20470;-76
2022/05/02 09:31:58;;;;;;;13.40;12.00;;;16.80;99.90;;;;;;5016138;28;20446;-74
2022/05/02 09:34:40;;;;;;;15.30;13.70;;;16.90;99.90;;;;;;5015038;28;20458;-76
2022/05/02 09:37:11;;;;;;;13.40;12.00;;;17.00;99.90;;;;;;5013575;28;20492;-74
2022/05/02 09:39:52;;;;;;;14.87;13.27;;;17.10;99.90;;;;;;5010070;28;20977;-78
2022/05/02 09:42:20;;;;;;;13.77;12.30;;;17.00;99.90;;;;;;5011837;28;20506;-75
2022/05/02 09:51:01;;;;;;;13.30;12.00;;;17.10;99.90;;;;;;5012302;28;20825;-74
2022/05/02 09:53:52;;;;;;;14.50;12.37;;;17.10;99.90;;;;;;5012642;28;20986;-72
2022/05/02 09:56:39;;;;;;;19.03;13.40;;;17.30;99.90;;;;;;5011561;28;20437;-74
2022/05/02 09:59:24;;;;;;;15.17;11.90;;;17.30;99.90;;;;;;5008438;28;20541;-74
2022/05/02 10:02:20;;;;;;;13.17;11.53;;;17.40;99.90;;;;;;5008166;28;21190;-75
2022/05/02 10:05:06;;;;;;;14.03;12.63;;;17.50;99.90;;;;;;5009252;28;20462;-75
2022/05/02 10:07:40;;;;;;;16.83;15.00;;;17.60;99.90;;;;;;5009230;28;20499;-75
2022/05/02 10:10:27;;;;;;;24.73;22.13;;;17.60;99.90;;;;;;5007077;28;20485;-73
2022/05/02 10:13:18;;;;;;;19.83;17.73;;;17.60;99.90;;;;;;5010272;28;20468;-73
2022/05/02 10:15:49;;;;;;;12.67;11.33;;;17.70;99.90;;;;;;5010673;28;20476;-75
2022/05/02 10:18:23;;;;;;;16.20;12.73;;;17.80;99.90;;;;;;5014329;28;20450;-75
2022/05/02 10:21:09;;;;;;;16.30;12.80;;;17.80;99.90;;;;;;5012776;28;20434;-76
2022/05/02 10:23:53;;;;;;;13.93;11.87;;;17.90;99.90;;;;;;5014918;28;20479;-77
2022/05/02 10:26:36;;;;;;;12.03;10.73;;;18.00;99.90;;;;;;5012976;28;21192;-73
2022/05/02 10:29:27;;;;;;;12.53;11.23;;;18.10;99.90;;;;;;5020002;28;20581;-74
2022/05/02 10:32:06;;;;;;;12.00;10.40;;;18.10;99.90;;;;;;5011461;28;20432;-76
2022/05/02 10:34:33;;;;;;;14.87;11.00;;;18.10;99.90;;;;;;5015353;28;20430;-76
2022/05/02 10:37:05;;;;;;;14.07;12.57;;;18.10;99.90;;;;;;5020484;28;20434;-76
2022/05/02 10:39:47;;;;;;;15.17;11.17;;;18.20;99.90;;;;;;5014416;28;20435;-74
2022/05/02 10:42:17;;;;;;;12.40;11.30;;;18.20;99.90;;;;;;5015747;28;20451;-74
2022/05/02 10:44:50;;;;;;;16.30;11.03;;;18.30;99.90;;;;;;5012029;28;20471;-73
2022/05/02 10:47:20;;;;;;;12.67;11.20;;;18.30;99.90;;;;;;5032136;28;20546;-75
2022/05/02 10:49:48;;;;;;;11.80;10.47;;;18.30;99.90;;;;;;5009998;28;20790;-73
2022/05/02 10:52:36;;;;;;;12.00;10.17;;;18.40;99.90;;;;;;5012354;28;20450;-76
2022/05/02 10:55:05;;;;;;;12.30;10.90;;;18.50;99.90;;;;;;5019153;28;20427;-74
2022/05/02 10:57:49;;;;;;;11.73;10.50;;;18.60;99.90;;;;;;5017811;28;20918;-76
2022/05/02 11:00:15;;;;;;;12.67;9.70;;;18.70;99.90;;;;;;5018026;28;20447;-77
2022/05/02 11:02:51;;;;;;;10.67;9.60;;;18.80;99.90;;;;;;5013547;28;20471;-74
2022/05/02 11:05:24;;;;;;;14.63;10.40;;;18.90;99.90;;;;;;5019064;28;20739;-77
2022/05/02 11:08:01;;;;;;;12.30;10.70;;;18.90;99.90;;;;;;5014799;28;20672;-76
2022/05/02 11:10:54;;;;;;;11.33;10.23;;;19.00;99.90;;;;;;5016122;28;20518;-77
2022/05/02 11:13:46;;;;;;;12.73;10.60;;;19.10;99.90;;;;;;5010487;28;20467;-73
2022/05/02 11:16:14;;;;;;;11.23;10.13;;;19.10;99.90;;;;;;5012097;28;20501;-76
2022/05/02 11:22:25;;;;;;;13.70;11.90;;;19.20;99.90;;;;;;5015149;28;20422;-76
2022/05/02 11:25:15;;;;;;;11.73;10.57;;;19.20;99.90;;;;;;5015325;28;20446;-77
2022/05/02 11:27:59;;;;;;;12.17;10.87;;;19.30;99.90;;;;;;5014378;28;20466;-74
2022/05/02 11:30:34;;;;;;;12.97;10.33;;;19.30;99.90;;;;;;5014840;28;20435;-77
2022/05/02 11:33:06;;;;;;;12.60;11.40;;;19.20;99.90;;;;;;5028141;28;20505;-77
2022/05/02 11:35:35;;;;;;;12.20;9.20;;;19.30;99.90;;;;;;5012092;28;20505;-74
2022/05/02 11:38:29;;;;;;;10.87;9.77;;;19.50;99.90;;;;;;5014991;28;20423;-76
2022/05/02 11:41:09;;;;;;;11.57;10.30;;;19.60;99.90;;;;;;5014510;28;21086;-76
2022/05/02 11:43:38;;;;;;;12.50;10.70;;;19.70;99.90;;;;;;5013591;28;20525;-74
2022/05/02 11:46:25;;;;;;;12.33;9.03;;;19.80;99.90;;;;;;5013036;28;20443;-77
2022/05/02 11:49:12;;;;;;;9.13;8.23;;;19.90;99.90;;;;;;5011252;28;20860;-77
2022/05/02 11:51:46;;;;;;;10.60;9.50;;;20.10;99.90;;;;;;5010245;28;20435;-74
2022/05/02 11:54:24;;;;;;;10.77;9.77;;;20.40;99.90;;;;;;5005078;28;20431;-75
2022/05/02 11:57:14;;;;;;;12.20;9.67;;;20.50;99.90;;;;;;5025927;28;20439;-75
2022/05/02 11:59:53;;;;;;;10.70;9.70;;;20.60;99.90;;;;;;5009817;28;20448;-75
2022/05/02 12:02:56;;;;;;;10.70;9.60;;;20.80;99.90;;;;;;5008319;28;20458;-77
2022/05/02 12:05:28;;;;;;;12.20;9.57;;;20.90;99.90;;;;;;5007841;28;20454;-75
2022/05/02 12:07:53;;;;;;;10.13;9.13;;;21.30;99.90;;;;;;5015577;28;20463;-75
2022/05/02 12:10:30;;;;;;;10.50;9.40;;;21.60;99.90;;;;;;5008919;28;20466;-77
2022/05/02 12:12:57;;;;;;;9.97;9.03;;;21.50;99.90;;;;;;5024706;28;20212;-77
2022/05/02 12:15:24;;;;;;;10.23;9.23;;;21.70;99.90;;;;;;5010350;28;20434;-77
2022/05/02 12:17:50;;;;;;;15.47;9.20;;;21.70;99.90;;;;;;5009630;28;20432;-77
2022/05/02 12:20:42;;;;;;;9.10;8.30;;;21.80;99.90;;;;;;5012114;28;21157;-77
2022/05/02 12:23:12;;;;;;;8.87;8.00;;;22.10;99.90;;;;;;5008588;28;20216;-75
2022/05/02 12:25:54;;;;;;;12.30;9.63;;;22.30;99.90;;;;;;5008926;28;20434;-76
2022/05/02 12:28:43;;;;;;;9.57;8.67;;;22.40;99.90;;;;;;5011903;28;21287;-77
2022/05/02 12:31:15;;;;;;;10.27;9.20;;;22.10;99.90;;;;;;5007683;28;20447;-77
2022/05/02 12:33:43;;;;;;;9.27;8.33;;;22.10;99.90;;;;;;5011792;28;20454;-78
2022/05/02 12:36:15;;;;;;;9.17;8.20;;;22.10;99.90;;;;;;5009361;28;20958;-77
2022/05/02 12:38:48;;;;;;;9.20;8.30;;;22.00;99.90;;;;;;5006516;28;20500;-78
2022/05/02 12:41:20;;;;;;;12.67;9.03;;;22.20;99.90;;;;;;5024624;28;20439;-75
2022/05/02 12:43:51;;;;;;;9.70;8.10;;;22.50;99.90;;;;;;5010552;28;20526;-76
2022/05/02 12:46:18;;;;;;;14.60;7.17;;;22.50;99.90;;;;;;5009778;28;20845;-75
2022/05/02 12:49:00;;;;;;;10.23;7.83;;;22.80;99.90;;;;;;5005280;28;20475;-77
2022/05/02 12:51:28;;;;;;;7.13;6.53;;;23.00;99.90;;;;;;5022705;28;20443;-77
2022/05/02 12:54:14;;;;;;;8.07;7.27;;;23.10;99.80;;;;;;5009449;28;20829;-74
2022/05/02 13:02:44;;;;;;;8.10;7.40;;;22.80;99.80;;;;;;5010236;28;20977;-77
2022/05/02 13:05:17;;;;;;;9.20;8.30;;;22.70;99.90;;;;;;5007556;28;20885;-76
2022/05/02 13:07:45;;;;;;;10.60;8.73;;;23.00;99.90;;;;;;5012743;28;20467;-76
2022/05/02 13:10:28;;;;;;;8.00;7.30;;;23.20;99.90;;;;;;5008208;28;20546;-75
2022/05/02 13:13:04;;;;;;;9.47;8.60;;;23.20;99.70;;;;;;5012879;28;20875;-75
2022/05/02 13:15:41;;;;;;;9.70;8.73;;;23.00;98.80;;;;;;5007167;28;20540;-71
2022/05/02 13:18:09;;;;;;;9.77;8.10;;;22.90;99.00;;;;;;5018185;28;20490;-77
2022/05/02 13:20:36;;;;;;;11.57;7.87;;;22.80;98.80;;;;;;5017173;28;20443;-82
2022/05/02 13:23:13;;;;;;;8.67;7.80;;;22.70;99.20;;;;;;5010505;28;20887;-83
2022/05/02 13:26:12;;;;;;;7.90;7.20;;;22.80;98.60;;;;;;5013785;28;20470;-76
2022/05/02 13:29:15;;;;;;;8.10;7.30;;;22.80;99.10;;;;;;5011890;28;20882;-74
2022/05/02 13:31:45;;;;;;;8.93;8.07;;;22.90;98.10;;;;;;5012340;28;20930;-73